Terminal Aerodrome Forecast
Issued by NWS

Home | Current Version | Previous Version | Graphics & Text | Print | Product List | Glossary On
Versions: 1 2 3 4 5 6 7 8 9 10 11 12 13 14 15 16
548
FTUS43 KGRB 240520
TAFMTW
TAF
KMTW 240520Z 2406/2506 29007KT P6SM SCT050 SCT090
     FM241200 29008KT P6SM BKN080
     FM241600 29012G18KT P6SM BKN050 PROB30 2418/2424 4SM -SHRA
      BKN035
     FM250000 29006KT P6SM SCT040 BKN070=

USA.gov is the U.S. government's official web portal to all federal, state and local government web resources and services.